EZY14QP BIKF-EGGW
Flight info
| Callsign | EZY14QP |
|---|---|
| Flight time | N/A |
| Altitude | 37000 |
| Route | OSKUM3C OSKUM DCT RATSU/N0450F370 DCT BARKU DCT AKOMU DCT VAMEB UL612 LISTO |
| Aircraft | A20N/M-SDE2E3FGHIRWXY/LB1 |
Departure
| Time | N/A |
|---|---|
| Airport | Keflavik International Airport (BIKF) |
Arrival
| Time | 2026-04-29 21:51 |
|---|---|
| Airport | London Luton Airport (EGGW) |
| Time | Latitude | Longitude | Altitude | Speed | Heading |
|---|---|---|---|---|---|
| 2026-04-29 21:37 | 52.65403 | -1.60802 | 28872 ft | 438 kts | 149° |
| 2026-04-29 21:37 | 52.62629 | -1.58709 | 27651 ft | 439 kts | 156° |
| 2026-04-29 21:37 | 52.59863 | -1.56653 | 26685 ft | 433 kts | 153° |
| 2026-04-29 21:38 | 52.57185 | -1.54490 | 25986 ft | 423 kts | 153° |
| 2026-04-29 21:38 | 52.54549 | -1.52466 | 25345 ft | 414 kts | 154° |
| 2026-04-29 21:38 | 52.51986 | -1.50531 | 25058 ft | 397 kts | 154° |
| 2026-04-29 21:38 | 52.49524 | -1.48670 | 24832 ft | 386 kts | 154° |
| 2026-04-29 21:39 | 52.47069 | -1.46803 | 24738 ft | 391 kts | 154° |
| 2026-04-29 21:39 | 52.44601 | -1.44920 | 24403 ft | 391 kts | 154° |
| 2026-04-29 21:39 | 52.42129 | -1.43030 | 23680 ft | 393 kts | 154° |
| 2026-04-29 21:39 | 52.39674 | -1.41156 | 23030 ft | 386 kts | 153° |
| 2026-04-29 21:40 | 52.37260 | -1.39318 | 22394 ft | 379 kts | 153° |
| 2026-04-29 21:40 | 52.34872 | -1.37501 | 21764 ft | 372 kts | 153° |
| 2026-04-29 21:40 | 52.32566 | -1.35749 | 21164 ft | 366 kts | 153° |
| 2026-04-29 21:40 | 52.30280 | -1.34013 | 20619 ft | 360 kts | 153° |
| 2026-04-29 21:41 | 52.28057 | -1.32064 | 20161 ft | 365 kts | 148° |
| 2026-04-29 21:41 | 52.25858 | -1.29975 | 19711 ft | 364 kts | 148° |
| 2026-04-29 21:41 | 52.23690 | -1.27921 | 19284 ft | 359 kts | 148° |
| 2026-04-29 21:41 | 52.21536 | -1.25887 | 18864 ft | 357 kts | 148° |
| 2026-04-29 21:42 | 52.19393 | -1.23867 | 18426 ft | 355 kts | 148° |
| 2026-04-29 21:42 | 52.17258 | -1.21859 | 17946 ft | 353 kts | 148° |
| 2026-04-29 21:42 | 52.15141 | -1.19869 | 17604 ft | 350 kts | 148° |
| 2026-04-29 21:42 | 52.13034 | -1.17891 | 17258 ft | 349 kts | 148° |
| 2026-04-29 21:43 | 52.10934 | -1.15922 | 16919 ft | 348 kts | 148° |
| 2026-04-29 21:43 | 52.08836 | -1.13958 | 16577 ft | 347 kts | 148° |
| 2026-04-29 21:43 | 52.06757 | -1.12014 | 16250 ft | 345 kts | 148° |
| 2026-04-29 21:43 | 52.04673 | -1.10067 | 15917 ft | 344 kts | 148° |
| 2026-04-29 21:44 | 52.02672 | -1.07993 | 15555 ft | 340 kts | 138° |
| 2026-04-29 21:44 | 52.01148 | -1.05112 | 15343 ft | 337 kts | 121° |
| 2026-04-29 21:44 | 51.99876 | -1.01922 | 15169 ft | 338 kts | 129° |
| 2026-04-29 21:44 | 51.98259 | -0.99153 | 15002 ft | 338 kts | 133° |
| 2026-04-29 21:45 | 51.96608 | -0.96472 | 14822 ft | 334 kts | 135° |
| 2026-04-29 21:45 | 51.94897 | -0.93883 | 14654 ft | 337 kts | 136° |
| 2026-04-29 21:45 | 51.93170 | -0.91335 | 14417 ft | 333 kts | 136° |
| 2026-04-29 21:45 | 51.91465 | -0.88817 | 13763 ft | 331 kts | 136° |
| 2026-04-29 21:46 | 51.89773 | -0.86298 | 13158 ft | 328 kts | 136° |
| 2026-04-29 21:46 | 51.88108 | -0.83808 | 12401 ft | 322 kts | 136° |
| 2026-04-29 21:46 | 51.86476 | -0.81360 | 11479 ft | 318 kts | 136° |
| 2026-04-29 21:46 | 51.84938 | -0.79050 | 10621 ft | 313 kts | 136° |
| 2026-04-29 21:47 | 51.83352 | -0.76656 | 9718 ft | 308 kts | 133° |
| 2026-04-29 21:47 | 51.82194 | -0.73880 | 9157 ft | 291 kts | 112° |
| 2026-04-29 21:47 | 51.81852 | -0.70715 | 8388 ft | 287 kts | 90° |
| 2026-04-29 21:47 | 51.82138 | -0.67542 | 7574 ft | 285 kts | 80° |
| 2026-04-29 21:48 | 51.82678 | -0.64471 | 6781 ft | 282 kts | 76° |
| 2026-04-29 21:48 | 51.83202 | -0.61434 | 5936 ft | 278 kts | 77° |
| 2026-04-29 21:48 | 51.83724 | -0.58445 | 5114 ft | 275 kts | 77° |
| 2026-04-29 21:48 | 51.84237 | -0.55493 | 4266 ft | 271 kts | 78° |
| 2026-04-29 21:49 | 51.84743 | -0.52574 | 3438 ft | 268 kts | 78° |
| 2026-04-29 21:49 | 51.85240 | -0.49697 | 2589 ft | 264 kts | 78° |
| 2026-04-29 21:49 | 51.85721 | -0.46924 | 2041 ft | 238 kts | 77° |
| 2026-04-29 21:49 | 51.86149 | -0.44819 | 1729 ft | 160 kts | 76° |
| 2026-04-29 21:50 | 51.86502 | -0.43340 | 1384 ft | 128 kts | 75° |
| 2026-04-29 21:50 | 51.86754 | -0.41984 | 920 ft | 137 kts | 74° |
| 2026-04-29 21:50 | 51.86986 | -0.40354 | 837 ft | 138 kts | 80° |
| 2026-04-29 21:50 | 51.87112 | -0.38931 | 645 ft | 122 kts | 77° |
| 2026-04-29 21:51 | 51.87325 | -0.37652 | 528 ft | 109 kts | 75° |
| 2026-04-29 21:51 | 51.87486 | -0.36721 | 525 ft | 57 kts | 72° |
| 2026-04-29 21:51 | 51.87647 | -0.35919 | 516 ft | 11 kts | 34° |
| 2026-04-29 21:52 | 51.87687 | -0.35925 | 516 ft | 10 kts | 351° |
| 2026-04-29 21:52 | 51.87770 | -0.36001 | 516 ft | 16 kts | 296° |
| 2026-04-29 21:52 | 51.87766 | -0.36200 | 518 ft | 21 kts | 257° |
| 2026-04-29 21:52 | 51.87717 | -0.36466 | 519 ft | 27 kts | 251° |
| 2026-04-29 21:53 | 51.87662 | -0.36767 | 523 ft | 28 kts | 253° |
| 2026-04-29 21:53 | 51.87630 | -0.37005 | 522 ft | 11 kts | 261° |
| 2026-04-29 21:53 | 51.87608 | -0.37179 | 522 ft | 20 kts | 256° |
| 2026-04-29 21:53 | 51.87604 | -0.37416 | 522 ft | 17 kts | 313° |
| 2026-04-29 21:54 | 51.87696 | -0.37571 | 519 ft | 22 kts | 302° |
| 2026-04-29 21:54 | 51.87771 | -0.37810 | 523 ft | 25 kts | 294° |
| 2026-04-29 21:54 | 51.87898 | -0.38006 | 523 ft | 26 kts | 356° |
| 2026-04-29 21:54 | 51.88021 | -0.37920 | 523 ft | 15 kts | 35° |
| 2026-04-29 21:55 | 51.88069 | -0.37834 | 523 ft | 6 kts | 109° |
| 2026-04-29 21:55 | 51.88057 | -0.37798 | 523 ft | 1 kts | 129° |
| 2026-04-29 21:55 | 51.88052 | -0.37787 | 523 ft | 0 kts | 129° |
| 2026-04-29 21:55 | 51.88051 | -0.37785 | 523 ft | 0 kts | 128° |